createdAt,value
2018-04-04T00:02:05.010Z,28.17
2018-04-04T00:04:31.997Z,25.33
2018-04-04T00:06:58.244Z,15.70
2018-04-04T00:09:26.073Z,21.87
2018-04-04T00:11:53.746Z,20.80
2018-04-04T00:14:21.401Z,14.27
2018-04-04T00:16:48.401Z,19.33
2018-04-04T00:19:15.207Z,23.03
2018-04-04T00:21:41.468Z,20.53
2018-04-04T00:24:07.716Z,11.70
2018-04-04T00:26:34.201Z,17.30
2018-04-04T00:29:00.452Z,11.60
2018-04-04T00:31:27.640Z,13.23
2018-04-04T00:33:54.607Z,24.90
2018-04-04T00:36:20.856Z,20.47
2018-04-04T00:38:47.115Z,30.47
2018-04-04T00:41:13.765Z,25.17
2018-04-04T00:43:41.052Z,16.13
2018-04-04T00:46:08.788Z,18.23
2018-04-04T00:48:36.370Z,20.10
2018-04-04T00:51:03.748Z,19.63
2018-04-04T00:53:30.617Z,29.20
2018-04-04T00:55:56.873Z,14.00
2018-04-04T00:58:23.121Z,15.83
2018-04-04T01:00:49.868Z,22.53
2018-04-04T01:03:17.345Z,15.53
2018-04-04T01:05:44.341Z,13.83
2018-04-04T01:08:10.572Z,18.17
2018-04-04T01:10:37.476Z,17.73
2018-04-04T01:13:05.252Z,33.90
2018-04-04T01:15:32.234Z,13.10
2018-04-04T01:17:59.011Z,11.73
2018-04-04T01:20:25.892Z,12.73
2018-04-04T01:22:52.879Z,33.00
2018-04-04T01:25:19.577Z,15.97
2018-04-04T01:27:45.817Z,21.90
2018-04-04T01:30:12.091Z,15.90
2018-04-04T01:32:38.361Z,21.77
2018-04-04T01:35:04.609Z,19.97
2018-04-04T01:37:30.976Z,15.87
2018-04-04T01:39:57.500Z,22.37
2018-04-04T01:42:23.759Z,16.10
2018-04-04T01:44:50.570Z,18.73
2018-04-04T01:47:17.322Z,10.90
2018-04-04T01:49:44.181Z,13.33
2018-04-04T01:52:11.874Z,16.20
2018-04-04T01:54:38.116Z,20.40
2018-04-04T01:57:04.364Z,21.67
2018-04-04T01:59:30.634Z,16.13
2018-04-04T02:01:57.495Z,13.33
2018-04-04T02:04:23.745Z,8.70
2018-04-04T02:06:50.732Z,15.60
2018-04-04T02:09:17.321Z,12.17
2018-04-04T02:11:44.071Z,8.73
2018-04-04T02:14:10.840Z,10.67
2018-04-04T02:16:37.076Z,10.47
2018-04-04T02:19:03.336Z,18.30
2018-04-04T02:21:29.796Z,7.60
2018-04-04T02:23:58.048Z,21.33
2018-04-04T02:26:24.305Z,15.20
2018-04-04T02:28:50.565Z,10.17
2018-04-04T02:31:16.849Z,8.50
2018-04-04T02:33:43.108Z,10.87
2018-04-04T02:36:09.522Z,17.47
2018-04-04T02:38:36.336Z,14.40
2018-04-04T02:41:04.314Z,17.53
2018-04-04T02:43:31.300Z,16.03
2018-04-04T02:45:58.129Z,9.00
2018-04-04T02:48:25.269Z,16.40
2018-04-04T02:50:52.428Z,10.40
2018-04-04T02:53:19.856Z,22.03
2018-04-04T02:55:46.114Z,11.20
2018-04-04T02:58:13.137Z,11.90
2018-04-04T03:00:40.124Z,11.43
2018-04-04T03:03:07.628Z,6.00
2018-04-04T03:05:33.899Z,11.13
2018-04-04T03:08:00.975Z,14.50
2018-04-04T03:10:28.631Z,9.47
2018-04-04T03:12:56.081Z,7.87
2018-04-04T03:15:22.422Z,11.20
2018-04-04T03:17:48.657Z,22.07
2018-04-04T03:20:15.225Z,10.40
2018-04-04T03:22:42.204Z,7.43
2018-04-04T03:25:08.546Z,14.47
2018-04-04T03:27:35.047Z,10.47
2018-04-04T03:30:02.060Z,11.30
2018-04-04T03:32:28.316Z,6.73
2018-04-04T03:34:55.129Z,12.53
2018-04-04T03:37:21.406Z,10.53
2018-04-04T03:39:48.789Z,12.13
2018-04-04T03:42:15.041Z,16.67
2018-04-04T03:44:41.732Z,8.93
2018-04-04T03:47:08.596Z,12.47
2018-04-04T03:49:35.905Z,4.40
2018-04-04T03:52:02.138Z,13.63
2018-04-04T03:54:28.816Z,11.03
2018-04-04T03:56:55.068Z,7.10
2018-04-04T03:59:22.132Z,6.97
2018-04-04T04:01:49.890Z,5.83
2018-04-04T04:04:16.871Z,6.03
2018-04-04T04:06:43.893Z,11.07
2018-04-04T04:09:11.366Z,6.70
2018-04-04T04:11:38.984Z,11.13
2018-04-04T04:14:05.265Z,12.80
2018-04-04T04:16:32.262Z,8.60
2018-04-04T04:18:58.747Z,6.67
2018-04-04T04:21:26.240Z,6.33
2018-04-04T04:23:53.148Z,9.80
2018-04-04T04:26:20.006Z,6.30
2018-04-04T04:28:47.006Z,5.20
2018-04-04T04:31:13.250Z,10.90
2018-04-04T04:33:39.514Z,12.83
2018-04-04T04:36:06.383Z,9.20
2018-04-04T04:38:33.390Z,11.80
2018-04-04T04:41:00.494Z,11.90
2018-04-04T04:43:27.536Z,10.33
2018-04-04T04:45:54.526Z,6.83
2018-04-04T04:48:21.238Z,9.50
2018-04-04T04:50:48.232Z,12.90
2018-04-04T04:53:14.942Z,16.33
2018-04-04T04:55:42.403Z,18.10
2018-04-04T04:58:09.393Z,12.33
2018-04-04T05:00:38.036Z,3.97
2018-04-04T05:03:05.262Z,12.77
2018-04-04T05:05:31.536Z,19.30
2018-04-04T05:07:59.174Z,7.50
2018-04-04T05:10:26.202Z,9.17
2018-04-04T05:12:52.446Z,10.73
2018-04-04T05:15:19.046Z,8.27
2018-04-04T05:17:45.761Z,11.13
2018-04-04T05:20:12.736Z,9.77
2018-04-04T05:22:39.436Z,13.03
2018-04-04T05:25:05.683Z,8.70
2018-04-04T05:27:32.036Z,15.27
2018-04-04T05:29:59.305Z,7.17
2018-04-04T05:32:25.561Z,7.13
2018-04-04T05:34:52.482Z,5.73
2018-04-04T05:37:19.482Z,13.57
2018-04-04T05:39:46.369Z,4.73
2018-04-04T05:42:13.370Z,10.73
2018-04-04T05:44:39.634Z,9.43
2018-04-04T05:47:06.270Z,18.33
2018-04-04T05:49:32.539Z,12.17
2018-04-04T05:51:59.538Z,7.80
2018-04-04T05:54:26.227Z,13.70
2018-04-04T05:56:52.483Z,8.13
2018-04-04T05:59:19.989Z,9.33
2018-04-04T06:01:46.990Z,14.40
2018-04-04T06:04:14.754Z,6.97
2018-04-04T06:06:41.742Z,16.03
2018-04-04T06:09:07.994Z,11.87
2018-04-04T06:11:34.870Z,9.60
2018-04-04T06:14:01.551Z,9.77
2018-04-04T06:16:27.848Z,15.17
2018-04-04T06:18:54.078Z,15.33
2018-04-04T06:21:20.373Z,15.63
2018-04-04T06:23:46.646Z,17.00
2018-04-04T06:26:13.003Z,14.77
2018-04-04T06:28:39.258Z,8.90
2018-04-04T06:31:06.697Z,10.83
2018-04-04T06:33:32.950Z,15.80
2018-04-04T06:36:00.414Z,8.00
2018-04-04T06:38:27.417Z,10.27
2018-04-04T06:40:53.668Z,9.83
2018-04-04T06:43:20.279Z,9.23
2018-04-04T06:45:46.521Z,8.17
2018-04-04T06:48:13.315Z,10.07
2018-04-04T06:50:40.286Z,16.23
2018-04-04T06:53:08.039Z,10.63
2018-04-04T06:55:35.707Z,12.07
2018-04-04T06:58:03.383Z,11.73
2018-04-04T07:00:29.628Z,6.00
2018-04-04T07:02:56.590Z,9.27
2018-04-04T07:05:22.830Z,10.83
2018-04-04T07:07:49.631Z,10.03
2018-04-04T07:10:17.103Z,11.07
2018-04-04T07:12:44.562Z,8.20
2018-04-04T07:15:11.615Z,19.63
2018-04-04T07:17:38.615Z,5.27
2018-04-04T07:20:04.888Z,11.10
2018-04-04T07:22:31.150Z,10.50
2018-04-04T07:24:57.499Z,8.07
2018-04-04T07:27:23.966Z,5.23
2018-04-04T07:29:50.762Z,8.37
2018-04-04T07:32:17.742Z,12.53
2018-04-04T07:34:44.564Z,7.43
2018-04-04T07:37:11.620Z,5.63
2018-04-04T07:39:37.876Z,9.73
2018-04-04T07:42:04.158Z,6.60
2018-04-04T07:44:30.439Z,8.97
2018-04-04T07:46:57.360Z,7.97
2018-04-04T07:49:24.355Z,7.07
2018-04-04T07:51:50.610Z,5.67
2018-04-04T07:54:17.266Z,8.20
2018-04-04T07:56:43.912Z,11.10
2018-04-04T07:59:10.786Z,5.97
2018-04-04T08:01:38.361Z,7.23
2018-04-04T08:04:05.103Z,4.53
2018-04-04T08:06:32.638Z,3.87
2018-04-04T08:08:58.911Z,3.87
2018-04-04T08:11:26.052Z,7.27
2018-04-04T08:13:53.042Z,4.87
2018-04-04T08:16:19.298Z,6.60
2018-04-04T08:18:45.558Z,5.50
2018-04-04T08:21:11.897Z,2.70
2018-04-04T08:23:38.246Z,3.80
2018-04-04T08:26:07.140Z,6.10
2018-04-04T08:28:34.131Z,6.00
2018-04-04T08:31:01.143Z,5.27
2018-04-04T08:33:28.126Z,5.20
2018-04-04T08:35:54.375Z,8.07
2018-04-04T08:38:20.642Z,4.03
2018-04-04T08:40:46.883Z,3.83
2018-04-04T08:43:13.280Z,7.60
2018-04-04T08:45:39.556Z,4.27
2018-04-04T08:48:06.448Z,7.67
2018-04-04T08:50:32.685Z,4.03
2018-04-04T08:52:59.510Z,5.70
2018-04-04T08:55:26.495Z,4.07
2018-04-04T08:57:53.179Z,8.40
2018-04-04T09:00:19.458Z,4.53
2018-04-04T09:02:46.191Z,3.87
2018-04-04T09:05:13.263Z,5.50
2018-04-04T09:07:39.506Z,4.70
2018-04-04T09:10:06.662Z,5.03
2018-04-04T09:12:32.921Z,7.10
2018-04-04T09:14:59.175Z,7.40
2018-04-04T09:17:25.663Z,3.00
2018-04-04T09:19:51.914Z,5.80
2018-04-04T09:22:18.301Z,3.70
2018-04-04T09:24:45.740Z,5.83
2018-04-04T09:27:12.110Z,3.00
2018-04-04T09:29:39.543Z,6.60
2018-04-04T09:32:05.786Z,2.40
2018-04-04T09:34:32.044Z,5.07
2018-04-04T09:36:59.251Z,4.60
2018-04-04T09:39:25.495Z,3.87
2018-04-04T09:41:52.399Z,3.67
2018-04-04T09:44:18.703Z,2.50
2018-04-04T09:46:47.703Z,2.80
2018-04-04T09:49:16.012Z,4.50
2018-04-04T09:51:42.864Z,2.23
2018-04-04T09:54:09.643Z,3.33
2018-04-04T09:56:36.532Z,2.37
2018-04-04T09:59:03.530Z,3.10
2018-04-04T10:01:37.238Z,4.30
2018-04-04T10:04:04.119Z,7.07
2018-04-04T10:06:30.958Z,1.57
2018-04-04T10:08:57.206Z,1.50
2018-04-04T10:11:24.057Z,2.50
2018-04-04T10:13:50.310Z,2.03
2018-04-04T10:16:17.295Z,2.03
2018-04-04T10:18:43.796Z,1.60
2018-04-04T10:21:12.326Z,3.07
2018-04-04T10:23:38.578Z,5.50
2018-04-04T10:26:04.826Z,2.27
2018-04-04T10:28:31.706Z,4.63
2018-04-04T10:30:58.708Z,2.30
2018-04-04T10:33:24.962Z,1.93
2018-04-04T10:35:51.518Z,1.80
2018-04-04T10:38:20.042Z,1.30
2018-04-04T10:40:46.303Z,2.40
2018-04-04T10:43:12.562Z,1.40
2018-04-04T10:45:39.122Z,4.60
2018-04-04T10:48:06.586Z,2.73
2018-04-04T10:50:33.627Z,2.43
2018-04-04T10:53:00.391Z,2.60
2018-04-04T10:55:27.375Z,2.40
2018-04-04T10:57:54.278Z,10.73
2018-04-04T11:00:21.265Z,3.07
2018-04-04T11:02:47.970Z,2.17
2018-04-04T11:05:14.250Z,2.90
2018-04-04T11:07:40.514Z,1.57
2018-04-04T11:10:07.612Z,7.33
2018-04-04T11:12:34.602Z,2.17
2018-04-04T11:15:00.894Z,2.20
2018-04-04T11:17:27.928Z,3.10
2018-04-04T11:19:55.255Z,4.10
2018-04-04T11:22:21.519Z,4.00
2018-04-04T11:24:48.393Z,3.40
2018-04-04T11:27:16.258Z,2.40
2018-04-04T11:29:43.247Z,4.03
2018-04-04T11:32:09.530Z,2.13
2018-04-04T11:34:35.806Z,1.07
2018-04-04T11:37:02.116Z,2.50
2018-04-04T11:39:29.750Z,2.43
2018-04-04T11:41:56.022Z,1.67
2018-04-04T11:44:23.050Z,2.67
2018-04-04T11:46:49.754Z,1.57
2018-04-04T11:49:16.583Z,2.67
2018-04-04T11:51:43.206Z,1.77
2018-04-04T11:54:10.769Z,2.57
2018-04-04T11:56:38.210Z,2.43
2018-04-04T11:59:04.576Z,1.20
2018-04-04T12:01:31.570Z,5.07
2018-04-04T12:03:58.581Z,1.80
2018-04-04T12:06:24.863Z,1.10
2018-04-04T12:08:51.110Z,3.33
2018-04-04T12:11:17.884Z,2.40
2018-04-04T12:13:44.869Z,4.93
2018-04-04T12:16:11.134Z,1.17
2018-04-04T12:18:38.058Z,1.97
2018-04-04T12:21:04.976Z,1.10
2018-04-04T12:23:32.419Z,1.33
2018-04-04T12:25:59.401Z,1.20
2018-04-04T12:28:25.639Z,1.83
2018-04-04T12:30:51.915Z,4.20
2018-04-04T12:33:18.178Z,1.10
2018-04-04T12:35:44.526Z,2.93
2018-04-04T12:38:11.571Z,1.63
2018-04-04T12:40:37.817Z,1.13
2018-04-04T12:43:04.897Z,1.67
2018-04-04T12:45:31.721Z,5.60
2018-04-04T12:47:59.160Z,1.23
2018-04-04T12:50:25.422Z,1.97
2018-04-04T12:52:52.980Z,1.83
2018-04-04T12:55:19.970Z,2.17
2018-04-04T12:57:46.281Z,3.07
2018-04-04T13:00:12.526Z,1.20
2018-04-04T13:02:39.223Z,2.23
2018-04-04T13:05:05.578Z,1.13
2018-04-04T13:07:32.577Z,1.40
2018-04-04T13:09:59.170Z,1.00
2018-04-04T13:12:27.031Z,1.20
2018-04-04T13:14:53.655Z,3.67
2018-04-04T13:17:19.904Z,2.37
2018-04-04T13:19:46.975Z,4.17
2018-04-04T13:22:13.967Z,1.00
2018-04-04T13:24:40.225Z,1.20
2018-04-04T13:27:06.806Z,1.67
2018-04-04T13:29:33.786Z,1.10
2018-04-04T13:32:00.147Z,1.60
2018-04-04T13:34:26.789Z,1.20
2018-04-04T13:36:53.044Z,2.23
2018-04-04T13:39:20.774Z,0.90
2018-04-04T13:41:47.509Z,1.77
2018-04-04T13:44:13.754Z,1.93
2018-04-04T13:46:40.654Z,3.17
2018-04-04T13:49:08.542Z,2.00
2018-04-04T13:51:35.523Z,1.10
2018-04-04T13:54:02.118Z,1.23
2018-04-04T13:56:29.102Z,2.27
2018-04-04T13:58:55.350Z,1.40
2018-04-04T14:01:21.624Z,6.20
2018-04-04T14:03:48.488Z,1.10
2018-04-04T14:06:14.754Z,3.63
2018-04-04T14:08:41.137Z,1.23
2018-04-04T14:11:08.125Z,1.10
2018-04-04T14:13:35.537Z,1.47
2018-04-04T14:16:01.807Z,1.47
2018-04-04T14:18:28.446Z,1.23
2018-04-04T14:20:54.702Z,2.10
2018-04-04T14:23:21.705Z,3.60
2018-04-04T14:25:48.299Z,2.90
2018-04-04T14:28:15.295Z,1.30
2018-04-04T14:30:42.610Z,1.93
2018-04-04T14:33:09.720Z,1.53
2018-04-04T14:35:35.999Z,3.10
2018-04-04T14:38:03.026Z,1.90
2018-04-04T14:40:29.928Z,4.03
2018-04-04T14:42:56.739Z,3.53
2018-04-04T14:45:23.727Z,1.47
2018-04-04T14:47:50.847Z,1.60
2018-04-04T14:50:17.858Z,8.00
2018-04-04T14:52:44.626Z,1.40
2018-04-04T14:55:10.903Z,2.20
2018-04-04T14:57:37.214Z,3.87
2018-04-04T15:00:03.484Z,1.10
2018-04-04T15:02:30.267Z,2.30
2018-04-04T15:04:56.533Z,9.30
2018-04-04T15:07:23.519Z,1.20
2018-04-04T15:09:49.852Z,2.07
2018-04-04T15:12:16.674Z,7.67
2018-04-04T15:14:44.439Z,2.40
2018-04-04T15:17:11.426Z,2.93
2018-04-04T15:19:37.696Z,2.13
2018-04-04T15:22:04.266Z,1.47
2018-04-04T15:24:31.262Z,2.00
2018-04-04T15:26:57.700Z,1.40
2018-04-04T15:29:24.649Z,1.43
2018-04-04T15:31:50.927Z,1.30
2018-04-04T15:34:17.188Z,1.30
2018-04-04T15:36:44.943Z,2.70
2018-04-04T15:39:11.965Z,2.30
2018-04-04T15:41:38.854Z,1.00
2018-04-04T15:44:05.863Z,1.47
2018-04-04T15:46:32.118Z,5.70
2018-04-04T15:48:58.771Z,3.73
2018-04-04T15:51:25.017Z,2.77
2018-04-04T15:53:52.679Z,1.57
2018-04-04T15:56:19.667Z,2.07
2018-04-04T15:58:45.969Z,1.77
2018-04-04T16:01:13.562Z,1.30
2018-04-04T16:03:40.170Z,1.27
2018-04-04T16:06:07.166Z,1.10
2018-04-04T16:08:33.849Z,5.03
2018-04-04T16:11:01.022Z,1.40
2018-04-04T16:13:28.471Z,7.23
2018-04-04T16:15:54.727Z,1.97
2018-04-04T16:18:21.729Z,2.67
2018-04-04T16:20:48.314Z,1.20
2018-04-04T16:23:15.303Z,2.13
2018-04-04T16:25:42.114Z,1.57
2018-04-04T16:28:09.882Z,1.77
2018-04-04T16:30:37.359Z,1.43
2018-04-04T16:33:04.914Z,3.43
2018-04-04T16:35:32.251Z,1.77
2018-04-04T16:37:59.008Z,2.03
2018-04-04T16:40:25.274Z,1.00
2018-04-04T16:42:51.602Z,1.07
2018-04-04T16:45:18.347Z,1.67
2018-04-04T16:47:44.613Z,1.43
2018-04-04T16:50:10.882Z,6.27
2018-04-04T16:52:39.090Z,3.57
2018-04-04T16:55:06.087Z,11.67
2018-04-04T17:06:32.732Z,6.70
2018-04-04T17:08:58.986Z,4.27
2018-04-04T17:11:26.163Z,1.97
2018-04-04T17:13:53.150Z,1.30
2018-04-04T17:16:19.417Z,1.67
2018-04-04T17:18:45.977Z,1.73
2018-04-04T17:21:12.992Z,1.80
2018-04-04T17:23:39.355Z,1.20
2018-04-04T17:26:05.722Z,2.37
2018-04-04T17:28:31.978Z,1.30
2018-04-04T17:30:58.214Z,5.87
2018-04-04T17:33:25.026Z,1.87
2018-04-04T17:35:52.076Z,4.80
2018-04-04T17:38:19.085Z,8.83
2018-04-04T17:40:45.567Z,5.97
2018-04-04T17:43:12.583Z,3.83
2018-04-04T17:45:39.932Z,2.97
2018-04-04T17:48:06.634Z,2.57
2018-04-04T17:50:33.709Z,1.97
2018-04-04T17:53:00.631Z,1.73
2018-04-04T17:55:28.074Z,7.53
2018-04-04T17:57:54.378Z,9.60
2018-04-04T18:00:21.297Z,4.93
2018-04-04T18:02:48.142Z,4.70
2018-04-04T18:05:14.876Z,3.23
2018-04-04T18:07:42.437Z,3.67
2018-04-04T18:10:10.706Z,3.77
2018-04-04T18:12:37.694Z,4.50
2018-04-04T18:15:03.952Z,4.03
2018-04-04T18:17:30.786Z,4.17
2018-04-04T18:19:58.188Z,1.77
2018-04-04T18:22:24.462Z,3.13
2018-04-04T18:24:50.744Z,1.87
2018-04-04T18:27:16.998Z,2.67
2018-04-04T18:29:44.097Z,3.27
2018-04-04T18:32:10.375Z,8.33
2018-04-04T18:34:36.998Z,1.40
2018-04-04T18:37:03.282Z,2.03
2018-04-04T18:39:30.858Z,1.30
2018-04-04T18:41:57.604Z,3.70
2018-04-04T18:44:23.863Z,4.93
2018-04-04T18:46:50.678Z,2.77
2018-04-04T18:49:17.692Z,2.50
2018-04-04T18:51:43.959Z,3.70
2018-04-04T18:54:11.303Z,7.40
2018-04-04T18:56:37.578Z,15.33
2018-04-04T18:59:04.510Z,14.73
2018-04-04T19:01:31.971Z,10.50
2018-04-04T19:03:59.631Z,6.80
2018-04-04T19:06:27.096Z,4.00
2018-04-04T19:08:54.083Z,11.83
2018-04-04T19:11:21.199Z,9.90
2018-04-04T19:13:48.170Z,5.10
2018-04-04T19:16:14.492Z,10.30
2018-04-04T19:18:42.153Z,16.10
2018-04-04T19:21:09.151Z,5.37
2018-04-04T19:23:35.402Z,11.27
2018-04-04T19:26:01.695Z,6.03
2018-04-04T19:28:27.959Z,3.93
2018-04-04T19:30:54.951Z,6.30
2018-04-04T19:33:22.319Z,8.73
2018-04-04T19:35:49.330Z,4.50
2018-04-04T19:38:15.624Z,6.43
2018-04-04T19:40:42.559Z,3.40
2018-04-04T19:43:10.132Z,5.13
2018-04-04T19:45:37.558Z,3.03
2018-04-04T19:48:03.844Z,5.33
2018-04-04T19:50:30.116Z,2.83
2018-04-04T19:52:57.034Z,9.83
2018-04-04T19:55:23.290Z,3.37
2018-04-04T19:57:50.087Z,6.30
2018-04-04T20:00:17.553Z,9.73
2018-04-04T20:02:45.131Z,3.10
2018-04-04T20:05:11.815Z,11.27
2018-04-04T20:07:38.080Z,4.67
2018-04-04T20:10:05.559Z,1.60
2018-04-04T20:12:32.556Z,4.70
2018-04-04T20:14:58.807Z,3.03
2018-04-04T20:17:25.082Z,2.93
2018-04-04T20:19:52.095Z,2.90
2018-04-04T20:22:18.830Z,3.60
2018-04-04T20:24:45.722Z,8.40
2018-04-04T20:27:12.734Z,4.03
2018-04-04T20:29:38.983Z,6.20
2018-04-04T20:32:05.273Z,1.53
2018-04-04T20:34:31.997Z,3.77
2018-04-04T20:36:58.998Z,5.43
2018-04-04T20:39:25.458Z,8.97
2018-04-04T20:41:51.768Z,2.67
2018-04-04T20:44:18.065Z,1.30
2018-04-04T20:46:44.415Z,1.63
2018-04-04T20:49:10.734Z,2.87
2018-04-04T20:51:37.724Z,1.40
2018-04-04T20:54:04.634Z,1.90
2018-04-04T20:56:32.074Z,4.03
2018-04-04T20:58:58.330Z,2.73
2018-04-04T21:01:25.938Z,7.47
2018-04-04T21:03:52.735Z,3.87
2018-04-04T21:06:19.730Z,1.50
2018-04-04T21:08:46.774Z,1.20
2018-04-04T21:11:13.735Z,3.73
2018-04-04T21:13:40.039Z,1.40
2018-04-04T21:16:06.266Z,1.43
2018-04-04T21:18:33.705Z,5.33
2018-04-04T21:20:59.968Z,2.83
2018-04-04T21:23:26.962Z,2.27
2018-04-04T21:25:53.273Z,3.10
2018-04-04T21:28:19.511Z,3.13
2018-04-04T21:30:45.850Z,1.77
2018-04-04T21:33:13.082Z,1.20
2018-04-04T21:35:39.335Z,1.20
2018-04-04T21:38:05.673Z,2.03
2018-04-04T21:40:32.383Z,2.60
2018-04-04T21:42:59.374Z,1.73
2018-04-04T21:45:26.282Z,1.37
2018-04-04T21:47:53.346Z,1.40
2018-04-04T21:50:20.370Z,1.03
2018-04-04T21:52:47.238Z,1.67
2018-04-04T21:55:13.505Z,1.43
2018-04-04T21:57:40.730Z,1.10
2018-04-04T22:00:08.470Z,2.20
2018-04-04T22:02:34.690Z,1.53
2018-04-04T22:05:02.043Z,4.57
2018-04-04T22:07:28.946Z,3.67
2018-04-04T22:09:57.148Z,2.63
2018-04-04T22:12:23.720Z,1.10
2018-04-04T22:14:49.982Z,3.90
2018-04-04T22:17:16.242Z,1.70
2018-04-04T22:19:43.486Z,1.30
2018-04-04T22:22:10.494Z,1.83
2018-04-04T22:24:37.290Z,1.63
2018-04-04T22:27:04.283Z,1.20
2018-04-04T22:29:30.526Z,2.43
2018-04-04T22:31:56.815Z,2.20
2018-04-04T22:34:24.414Z,2.17
2018-04-04T22:36:50.658Z,5.63
2018-04-04T22:39:16.904Z,1.87
2018-04-04T22:41:43.175Z,2.00
2018-04-04T22:44:09.421Z,42.60
2018-04-04T22:46:36.509Z,12.10
2018-04-04T22:49:02.775Z,3.07
2018-04-04T22:51:29.458Z,1.80
2018-04-04T22:53:56.895Z,2.27
2018-04-04T22:56:23.879Z,1.30
2018-04-04T22:58:50.247Z,2.00
2018-04-04T23:01:17.067Z,2.70
2018-04-04T23:03:43.991Z,2.30
2018-04-04T23:06:11.354Z,5.90
2018-04-04T23:08:38.790Z,5.30
2018-04-04T23:11:05.518Z,4.80
2018-04-04T23:13:32.618Z,4.50
2018-04-04T23:16:00.018Z,2.57
2018-04-04T23:18:26.274Z,4.20
2018-04-04T23:20:52.533Z,20.67
2018-04-04T23:23:19.087Z,2.20
2018-04-04T23:25:46.067Z,3.40
2018-04-04T23:28:12.404Z,2.10
2018-04-04T23:30:38.659Z,4.20
2018-04-04T23:33:06.073Z,3.13
2018-04-04T23:35:33.071Z,3.80
2018-04-04T23:37:59.391Z,1.67
2018-04-04T23:40:25.898Z,1.60
2018-04-04T23:42:52.898Z,1.83
2018-04-04T23:45:19.270Z,2.60
2018-04-04T23:47:46.338Z,5.33
2018-04-04T23:50:13.327Z,1.73
2018-04-04T23:52:41.263Z,1.87
2018-04-04T23:55:08.247Z,1.67
2018-04-04T23:57:34.498Z,4.50
